Aviation Digital Data Service (ADDS)

Output produced by METARs form (0610 UTC 25 June 2018)
found at http://www.aviationweather.gov/adds/metars/
 
MSLP 250550Z 06003KT 020V090 FEW020 SCT033 FEW037CB 26/24 Q1012 A2989 NOSIG CB LTG N/NW
TAF MSLP 250325Z 2506/2606 05005KT 9999 FEW023 FEW037CB SCT070 TX33/2519Z TN25/2510Z 
     PROB30 
     TEMPO 2506/2509 RA 
     FM250900 02007KT FEW023 
     FM251700 17008KT FEW030 FEW040CB 
     FM260000 30004KT
       
MSSS 250550Z 33008KT 5000 TSRA BKN023 SCT033CB 22/20 Q1016 A3003
TAF MSSS 250325Z 2506/2606 32004KT 9999 FEW023 TX30/2519Z TN21/2511Z 
     PROB30 
     TEMPO 2506/2509 RA FEW023 SCT043 
     FM251700 16007KT 9999 FEW033 FEW037CB 
     FM260000 20004KT